Airfield :
LOGIN :

Register | Disclaimer

   EN    FR    IT 

 










Legend :    VFR   Marginal VFR   IFR   Intensive IFR   Very Intensive IFR
Visi :
Ceiling :
>= 8 km
>= 3000ft
5 to 8 km
1000 to 3000 ft
1500m to 5 km
500 to 1000 ft
800 to 1500m
200 to 500 ft
< 800m
< 200 ft
Symbols :   Thunderstorms  Fog  Heavy snow  Heavy precipitations  Wind > 20 kt
SIGMETs :     Misc.  Thunderstorms  Icing  Turbulence  Mountain Waves  Volcanic Ashes






- Airport Elevation : 1416 ft
- IATA code : ZRH


LSZH - Zurich

CURRENT METAR :
  • 020850Z 25004KT 220V290 9999 FEW021 SCT025 BKN050 21/17 Q1015 NOSIG

EXPIRED METARs :
  • 020820Z 25005KT 220V300 9999 FEW019 SCT022 BKN060 21/16 Q1015 NOSIG
  • 020750Z 24005KT 210V290 9999 FEW017 SCT049 21/16 Q1015 NOSIG
  • 020720Z 25005KT 9999 FEW029 BKN052 21/17 Q1015 NOSIG
  • 020650Z 25004KT 9999 FEW028 SCT047 BKN065 20/16 Q1015 NOSIG
  • 020620Z 23004KT 9999 FEW034 BKN042 19/16 Q1015 NOSIG

TAF TAF LSZH
Valid from the 02 at 09:00 until the 03 at 15:00 UTC


020825Z 0209/0315 VRB03KT 9999 FEW019 SCT022 BKN060 TX24/0215Z TN14/0304Z TX22/0315Z
PROB40
TEMPO 0212/0218 31010KT SHRA SCT040TCU
PROB30
TEMPO 0212/0218 31010G25KT TSRA SCT040CB
ATIS : +41 43 816 2295 (DEP) +41 43 816 2294 (ARR)



MET'MAP, your aeronautical weather chart ! - Copyright ORBIFLY December 2007 - Disclaimer

ORBIFLY MET'MAP TEAM :

Programming & Development : Alexandra Zaïnal
Concept & original design : Baudouin d'Aumeries
Assistance for programming : Marc-Olivier Méhu
Technical & hardware support : Manuel Goepfert

Contact : metmap@orbifly.com




SOURCES & CREDITS :

   NOAA